createdAt,value
2017-12-27T00:02:07.415Z,11.30
2017-12-27T00:07:37.133Z,14.27
2017-12-27T00:10:09.422Z,15.07
2017-12-27T00:12:42.352Z,13.33
2017-12-27T00:15:14.580Z,15.80
2017-12-27T00:17:46.726Z,12.03
2017-12-27T00:20:19.012Z,16.67
2017-12-27T00:22:51.086Z,12.37
2017-12-27T00:25:23.314Z,13.07
2017-12-27T00:27:55.419Z,14.27
2017-12-27T00:30:27.606Z,15.43
2017-12-27T00:32:54.337Z,14.70
2017-12-27T00:35:20.321Z,15.43
2017-12-27T00:37:46.340Z,15.70
2017-12-27T00:40:12.289Z,16.40
2017-12-27T00:42:38.249Z,13.00
2017-12-27T00:45:04.246Z,14.83
2017-12-27T00:47:30.210Z,13.40
2017-12-27T00:49:56.209Z,15.10
2017-12-27T00:52:23.002Z,15.57
2017-12-27T00:54:49.017Z,12.10
2017-12-27T00:57:15.017Z,11.37
2017-12-27T00:59:40.994Z,15.37
2017-12-27T01:02:06.942Z,13.27
2017-12-27T01:04:32.910Z,13.83
2017-12-27T01:06:58.853Z,10.90
2017-12-27T01:09:24.870Z,12.13
2017-12-27T01:11:50.831Z,17.03
2017-12-27T01:14:16.790Z,13.80
2017-12-27T01:16:43.549Z,13.60
2017-12-27T01:19:09.497Z,12.70
2017-12-27T01:21:35.439Z,14.00
2017-12-27T01:24:01.433Z,13.60
2017-12-27T01:26:28.213Z,17.37
2017-12-27T01:28:54.207Z,13.50
2017-12-27T01:31:20.165Z,15.03
2017-12-27T01:33:46.893Z,13.40
2017-12-27T01:36:12.844Z,12.40
2017-12-27T01:38:38.901Z,14.37
2017-12-27T01:41:05.615Z,16.80
2017-12-27T01:43:31.581Z,12.20
2017-12-27T01:45:58.328Z,12.00
2017-12-27T01:48:25.154Z,16.37
2017-12-27T01:50:51.135Z,15.50
2017-12-27T01:53:17.134Z,12.73
2017-12-27T01:55:43.098Z,13.13
2017-12-27T01:58:09.833Z,16.53
2017-12-27T02:00:35.784Z,15.33
2017-12-27T02:03:02.526Z,15.13
2017-12-27T02:05:28.487Z,19.97
2017-12-27T02:07:55.306Z,16.90
2017-12-27T02:10:21.307Z,12.30
2017-12-27T02:12:53.457Z,14.60
2017-12-27T02:15:20.170Z,14.70
2017-12-27T02:17:46.164Z,12.80
2017-12-27T02:20:12.167Z,16.03
2017-12-27T02:22:38.880Z,16.27
2017-12-27T02:25:04.841Z,18.97
2017-12-27T02:27:30.820Z,15.07
2017-12-27T02:29:56.825Z,17.43
2017-12-27T02:32:22.821Z,17.87
2017-12-27T02:34:48.808Z,15.97
2017-12-27T02:37:15.505Z,12.57
2017-12-27T02:42:48.142Z,16.40
2017-12-27T02:45:14.153Z,17.43
2017-12-27T02:47:40.137Z,17.20
2017-12-27T02:50:06.123Z,18.90
2017-12-27T02:52:32.121Z,14.33
2017-12-27T02:54:58.109Z,10.70
2017-12-27T02:57:24.114Z,19.50
2017-12-27T02:59:50.081Z,19.40
2017-12-27T03:02:16.068Z,17.17
2017-12-27T03:04:42.028Z,17.50
2017-12-27T03:07:08.026Z,17.97
2017-12-27T03:09:33.994Z,15.97
2017-12-27T03:12:00.717Z,15.60
2017-12-27T03:14:26.745Z,13.00
2017-12-27T03:16:52.741Z,19.00
2017-12-27T03:19:18.693Z,13.67
2017-12-27T03:21:44.687Z,17.87
2017-12-27T03:24:11.417Z,13.13
2017-12-27T03:26:38.849Z,13.97
2017-12-27T03:29:04.865Z,13.90
2017-12-27T03:31:30.849Z,13.73
2017-12-27T03:33:56.826Z,12.10
2017-12-27T03:36:23.609Z,13.80
2017-12-27T03:38:49.560Z,15.67
2017-12-27T03:41:15.510Z,14.53
2017-12-27T03:43:41.502Z,12.63
2017-12-27T03:46:07.457Z,12.43
2017-12-27T03:48:33.458Z,14.70
2017-12-27T03:51:07.118Z,17.43
2017-12-27T03:53:33.122Z,13.30
2017-12-27T03:55:59.073Z,12.73
2017-12-27T03:58:25.043Z,13.47
2017-12-27T04:00:51.025Z,9.77
2017-12-27T04:03:16.974Z,12.70
2017-12-27T04:05:42.956Z,12.30
2017-12-27T04:08:08.905Z,12.00
2017-12-27T04:10:34.889Z,9.80
2017-12-27T04:13:00.844Z,14.20
2017-12-27T04:15:26.805Z,11.70
2017-12-27T04:17:52.812Z,10.27
2017-12-27T04:20:18.765Z,13.30
2017-12-27T04:22:44.744Z,13.50
2017-12-27T04:25:10.724Z,11.80
2017-12-27T04:27:36.737Z,11.13
2017-12-27T04:30:05.540Z,10.47
2017-12-27T04:32:31.518Z,8.20
2017-12-27T04:34:57.470Z,6.97
2017-12-27T04:37:23.510Z,10.50
2017-12-27T04:39:50.206Z,8.00
2017-12-27T04:42:16.165Z,6.90
2017-12-27T04:44:42.162Z,9.30
2017-12-27T04:47:08.206Z,8.40
2017-12-27T04:49:34.205Z,8.50
2017-12-27T04:52:00.902Z,9.73
2017-12-27T04:54:26.868Z,9.63
2017-12-27T04:56:52.900Z,7.60
2017-12-27T04:59:18.852Z,7.67
2017-12-27T05:01:44.853Z,9.17
2017-12-27T05:04:10.801Z,12.70
2017-12-27T05:06:36.749Z,11.07
2017-12-27T05:09:02.733Z,8.83
2017-12-27T05:11:28.693Z,8.77
2017-12-27T05:13:54.686Z,9.43
2017-12-27T05:16:21.433Z,8.73
2017-12-27T05:18:48.122Z,8.77
2017-12-27T05:21:14.122Z,9.27
2017-12-27T05:23:40.849Z,8.67
2017-12-27T05:26:06.812Z,11.13
2017-12-27T05:28:33.613Z,12.70
2017-12-27T05:30:59.566Z,11.67
2017-12-27T05:33:25.534Z,6.87
2017-12-27T05:35:52.277Z,13.03
2017-12-27T05:38:18.234Z,10.27
2017-12-27T05:40:44.973Z,11.80
2017-12-27T05:43:10.965Z,11.90
2017-12-27T05:45:36.917Z,13.13
2017-12-27T05:48:02.875Z,13.30
2017-12-27T05:50:28.844Z,20.53
2017-12-27T05:52:54.853Z,17.20
2017-12-27T05:55:21.614Z,17.90
2017-12-27T05:57:48.343Z,16.40
2017-12-27T06:00:14.301Z,17.00
2017-12-27T06:02:41.090Z,13.73
2017-12-27T06:05:07.081Z,13.67
2017-12-27T06:07:33.042Z,12.10
2017-12-27T06:09:59.766Z,13.00
2017-12-27T06:12:25.798Z,13.93
2017-12-27T06:14:52.108Z,10.63
2017-12-27T06:17:18.062Z,10.23
2017-12-27T06:19:44.066Z,14.40
2017-12-27T06:22:10.071Z,11.13
2017-12-27T06:24:36.765Z,10.00
2017-12-27T06:27:02.745Z,14.27
2017-12-27T06:29:28.737Z,10.20
2017-12-27T06:31:54.702Z,16.50
2017-12-27T06:34:20.660Z,8.20
2017-12-27T06:36:46.668Z,9.10
2017-12-27T06:39:12.672Z,8.13
2017-12-27T06:41:38.625Z,10.17
2017-12-27T06:44:04.592Z,8.10
2017-12-27T06:46:30.581Z,9.30
2017-12-27T06:48:56.549Z,10.50
2017-12-27T06:51:22.562Z,8.40
2017-12-27T06:53:48.541Z,9.87
2017-12-27T06:56:14.493Z,11.10
2017-12-27T06:58:41.201Z,10.70
2017-12-27T07:01:07.190Z,9.97
2017-12-27T07:03:33.921Z,9.57
2017-12-27T07:05:59.926Z,10.63
2017-12-27T07:08:25.897Z,8.47
2017-12-27T07:10:52.613Z,13.83
2017-12-27T07:13:18.613Z,11.57
2017-12-27T07:15:44.562Z,12.03
2017-12-27T07:18:10.540Z,8.77
2017-12-27T07:20:36.525Z,11.53
2017-12-27T07:23:02.484Z,11.20
2017-12-27T07:25:28.469Z,10.33
2017-12-27T07:27:55.226Z,13.27
2017-12-27T07:30:21.202Z,16.07
2017-12-27T07:32:47.202Z,13.33
2017-12-27T07:35:13.916Z,10.87
2017-12-27T07:37:39.886Z,10.73
2017-12-27T07:40:06.604Z,14.30
2017-12-27T07:42:32.557Z,13.07
2017-12-27T07:44:58.505Z,13.50
2017-12-27T07:47:24.539Z,12.37
2017-12-27T07:49:50.501Z,12.87
2017-12-27T07:52:16.496Z,9.70
2017-12-27T07:54:42.469Z,13.27
2017-12-27T07:57:08.478Z,9.67
2017-12-27T07:59:34.419Z,11.40
2017-12-27T08:02:00.378Z,10.40
2017-12-27T08:04:26.415Z,9.60
2017-12-27T08:06:52.378Z,9.53
2017-12-27T08:09:18.346Z,8.53
2017-12-27T08:11:44.342Z,8.00
2017-12-27T08:14:10.313Z,16.87
2017-12-27T08:16:36.273Z,10.30
2017-12-27T08:19:02.998Z,12.57
2017-12-27T08:21:28.944Z,12.97
2017-12-27T08:23:54.945Z,6.80
2017-12-27T08:26:20.894Z,8.30
2017-12-27T08:28:53.847Z,13.60
2017-12-27T08:31:20.533Z,10.60
2017-12-27T08:33:46.546Z,8.27
2017-12-27T08:36:12.498Z,13.27
2017-12-27T08:38:38.482Z,9.83
2017-12-27T08:41:04.466Z,9.10
2017-12-27T08:43:30.449Z,10.70
2017-12-27T08:45:56.492Z,8.87
2017-12-27T08:48:22.477Z,7.77
2017-12-27T08:50:49.200Z,13.90
2017-12-27T08:53:15.893Z,12.53
2017-12-27T08:55:41.880Z,8.30
2017-12-27T08:58:08.581Z,10.30
2017-12-27T09:00:34.529Z,10.80
2017-12-27T09:03:00.496Z,9.50
2017-12-27T09:05:26.475Z,10.90
2017-12-27T09:07:52.473Z,11.13
2017-12-27T09:10:19.184Z,12.17
2017-12-27T09:12:45.141Z,12.07
2017-12-27T09:15:11.134Z,12.10
2017-12-27T09:17:37.117Z,13.70
2017-12-27T09:20:03.069Z,13.50
2017-12-27T09:22:29.784Z,11.73
2017-12-27T09:24:55.785Z,15.80
2017-12-27T09:27:21.779Z,11.53
2017-12-27T09:29:47.734Z,12.43
2017-12-27T09:32:14.450Z,16.70
2017-12-27T09:34:40.440Z,14.87
2017-12-27T09:37:06.384Z,13.53
2017-12-27T09:39:32.349Z,15.70
2017-12-27T09:41:58.355Z,15.87
2017-12-27T09:44:24.324Z,16.00
2017-12-27T09:46:50.290Z,16.53
2017-12-27T09:49:16.276Z,16.63
2017-12-27T09:51:42.226Z,16.57
2017-12-27T09:54:08.309Z,14.60
2017-12-27T09:56:35.014Z,16.23
2017-12-27T09:59:00.998Z,14.93
2017-12-27T10:01:27.744Z,14.60
2017-12-27T10:03:53.729Z,14.50
2017-12-27T10:06:19.738Z,16.20
2017-12-27T10:08:46.484Z,19.87
2017-12-27T10:11:13.227Z,21.03
2017-12-27T10:13:39.987Z,16.03
2017-12-27T10:16:06.721Z,17.27
2017-12-27T10:18:32.703Z,18.20
2017-12-27T10:20:58.652Z,18.67
2017-12-27T10:23:24.652Z,22.10
2017-12-27T10:25:51.380Z,21.73
2017-12-27T10:28:17.364Z,25.00
2017-12-27T10:30:43.353Z,19.47
2017-12-27T10:33:09.338Z,18.07
2017-12-27T10:35:35.289Z,17.80
2017-12-27T10:38:01.285Z,21.37
2017-12-27T10:40:28.026Z,19.07
2017-12-27T10:42:54.143Z,16.77
2017-12-27T10:45:20.125Z,20.67
2017-12-27T10:47:46.844Z,21.33
2017-12-27T10:50:12.793Z,14.93
2017-12-27T10:52:38.782Z,18.47
2017-12-27T10:55:04.769Z,18.70
2017-12-27T10:57:30.809Z,23.60
2017-12-27T10:59:57.552Z,20.07
2017-12-27T11:02:23.526Z,21.10
2017-12-27T11:04:49.505Z,17.83
2017-12-27T11:07:15.502Z,16.27
2017-12-27T11:09:41.481Z,17.07
2017-12-27T11:12:07.492Z,18.50
2017-12-27T11:14:33.440Z,19.10
2017-12-27T11:17:00.164Z,21.17
2017-12-27T11:19:26.177Z,17.90
2017-12-27T11:21:52.897Z,21.50
2017-12-27T11:24:18.901Z,22.20
2017-12-27T11:26:44.853Z,15.60
2017-12-27T11:29:11.564Z,19.80
2017-12-27T11:31:38.299Z,18.40
2017-12-27T11:34:04.994Z,26.57
2017-12-27T11:36:30.976Z,21.10
2017-12-27T11:38:57.677Z,20.80
2017-12-27T11:41:23.666Z,18.37
2017-12-27T11:43:49.644Z,20.93
2017-12-27T11:46:15.642Z,17.23
2017-12-27T11:48:42.376Z,20.97
2017-12-27T11:51:08.350Z,18.33
2017-12-27T11:53:35.078Z,17.33
2017-12-27T11:56:01.038Z,18.40
2017-12-27T11:58:27.799Z,16.37
2017-12-27T12:00:53.787Z,16.83
2017-12-27T12:03:19.785Z,20.80
2017-12-27T12:05:45.777Z,17.13
2017-12-27T12:08:11.752Z,18.30
2017-12-27T12:10:37.730Z,16.97
2017-12-27T12:13:03.705Z,20.10
2017-12-27T12:15:30.426Z,17.57
2017-12-27T12:17:56.737Z,20.57
2017-12-27T12:20:22.721Z,20.23
2017-12-27T12:22:48.706Z,17.00
2017-12-27T12:25:14.677Z,19.47
2017-12-27T12:27:40.632Z,18.47
2017-12-27T12:30:07.426Z,19.30
2017-12-27T12:32:33.400Z,18.87
2017-12-27T12:34:59.353Z,19.43
2017-12-27T12:37:25.418Z,18.87
2017-12-27T12:39:52.141Z,16.60
2017-12-27T12:42:18.126Z,20.37
2017-12-27T12:44:44.943Z,20.20
2017-12-27T12:47:11.657Z,16.73
2017-12-27T12:49:37.617Z,20.80
2017-12-27T12:52:03.609Z,17.70
2017-12-27T12:54:29.572Z,18.67
2017-12-27T12:56:55.558Z,20.53
2017-12-27T12:59:22.308Z,16.77
2017-12-27T13:01:49.001Z,17.60
2017-12-27T13:04:14.949Z,19.47
2017-12-27T13:06:40.941Z,17.13
2017-12-27T13:09:06.900Z,21.00
2017-12-27T13:11:32.845Z,19.27
2017-12-27T13:13:58.828Z,16.77
2017-12-27T13:16:24.846Z,16.53
2017-12-27T13:18:50.801Z,19.50
2017-12-27T13:21:17.527Z,18.90
2017-12-27T13:23:43.501Z,19.53
2017-12-27T13:26:10.197Z,22.10
2017-12-27T13:28:36.205Z,18.40
2017-12-27T13:31:02.178Z,17.90
2017-12-27T13:33:28.167Z,20.20
2017-12-27T13:35:54.186Z,19.83
2017-12-27T13:38:20.169Z,17.67
2017-12-27T13:40:46.173Z,20.00
2017-12-27T13:43:12.862Z,18.20
2017-12-27T13:45:38.814Z,19.77
2017-12-27T13:48:04.794Z,22.70
2017-12-27T13:50:31.480Z,22.50
2017-12-27T13:52:57.492Z,28.50
2017-12-27T13:55:24.273Z,16.40
2017-12-27T13:57:50.227Z,17.13
2017-12-27T14:00:16.179Z,18.30
2017-12-27T14:02:42.149Z,14.37
2017-12-27T14:05:08.838Z,16.97
2017-12-27T14:07:34.834Z,17.77
2017-12-27T14:10:01.517Z,18.27
2017-12-27T14:12:27.553Z,22.60
2017-12-27T14:14:53.538Z,18.60
2017-12-27T14:17:19.481Z,17.93
2017-12-27T14:19:45.501Z,19.47
2017-12-27T14:22:11.450Z,16.30
2017-12-27T14:24:37.442Z,15.53
2017-12-27T14:27:03.430Z,16.77
2017-12-27T14:29:29.392Z,17.93
2017-12-27T14:31:55.445Z,16.30
2017-12-27T14:34:21.388Z,18.63
2017-12-27T14:36:47.348Z,19.70
2017-12-27T14:39:13.335Z,18.03
2017-12-27T14:41:39.305Z,18.83
2017-12-27T14:44:05.281Z,15.67
2017-12-27T14:46:32.002Z,18.47
2017-12-27T14:48:58.026Z,20.10
2017-12-27T14:51:24.046Z,17.33
2017-12-27T14:53:50.068Z,19.80
2017-12-27T14:56:16.026Z,20.00
2017-12-27T14:58:42.083Z,19.27
2017-12-27T15:01:08.066Z,19.33
2017-12-27T15:03:34.788Z,15.00
2017-12-27T15:06:00.734Z,18.37
2017-12-27T15:08:26.700Z,19.93
2017-12-27T15:10:52.706Z,21.50
2017-12-27T15:13:18.705Z,21.07
2017-12-27T15:15:44.653Z,20.93
2017-12-27T15:18:10.626Z,21.17
2017-12-27T15:20:37.340Z,19.93
2017-12-27T15:23:03.296Z,20.80
2017-12-27T15:25:29.275Z,17.10
2017-12-27T15:27:55.286Z,20.83
2017-12-27T15:30:22.069Z,20.73
2017-12-27T15:32:48.049Z,20.83
2017-12-27T15:35:14.080Z,20.03
2017-12-27T15:37:40.023Z,18.77
2017-12-27T15:40:05.993Z,21.50
2017-12-27T15:42:32.865Z,20.77
2017-12-27T15:44:58.899Z,22.70
2017-12-27T15:47:24.888Z,19.03
2017-12-27T15:49:51.623Z,20.67
2017-12-27T15:52:17.586Z,18.43
2017-12-27T15:54:43.569Z,19.90
2017-12-27T15:57:09.594Z,21.73
2017-12-27T15:59:35.639Z,26.87
2017-12-27T16:02:01.612Z,20.93
2017-12-27T16:04:27.683Z,20.67
2017-12-27T16:06:53.710Z,37.90
2017-12-27T16:09:19.678Z,22.90
2017-12-27T16:11:45.683Z,20.50
2017-12-27T16:14:11.720Z,19.03
2017-12-27T16:16:38.481Z,20.53
2017-12-27T16:19:04.462Z,20.60
2017-12-27T16:21:30.413Z,21.70
2017-12-27T16:23:56.446Z,21.80
2017-12-27T16:26:22.500Z,22.00
2017-12-27T16:28:48.521Z,19.87
2017-12-27T16:31:14.520Z,27.30
2017-12-27T16:33:41.237Z,20.50
2017-12-27T16:36:07.254Z,22.80
2017-12-27T16:38:33.217Z,21.00
2017-12-27T16:40:59.991Z,21.47
2017-12-27T16:43:26.747Z,24.43
2017-12-27T16:45:53.493Z,22.50
2017-12-27T16:48:20.251Z,22.53
2017-12-27T16:50:47.031Z,21.47
2017-12-27T16:53:13.099Z,19.73
2017-12-27T16:55:39.045Z,21.50
2017-12-27T16:58:05.040Z,21.57
2017-12-27T17:00:31.091Z,21.60
2017-12-27T17:02:57.157Z,22.90
2017-12-27T17:05:23.283Z,18.53
2017-12-27T17:07:49.287Z,23.00
2017-12-27T17:10:15.285Z,21.30
2017-12-27T17:12:41.326Z,21.60
2017-12-27T17:15:07.272Z,22.90
2017-12-27T17:17:34.692Z,25.03
2017-12-27T17:20:00.670Z,21.20
2017-12-27T17:22:27.364Z,21.07
2017-12-27T17:24:53.390Z,18.07
2017-12-27T17:27:19.451Z,17.47
2017-12-27T17:29:45.494Z,21.60
2017-12-27T17:32:11.527Z,19.40
2017-12-27T17:34:37.472Z,22.53
2017-12-27T17:37:03.486Z,18.93
2017-12-27T17:39:29.519Z,16.53
2017-12-27T17:41:55.569Z,19.40
2017-12-27T17:44:21.560Z,19.53
2017-12-27T17:46:47.583Z,25.13
2017-12-27T17:49:13.612Z,17.50
2017-12-27T17:51:39.568Z,20.87
2017-12-27T17:54:06.354Z,18.63
2017-12-27T17:56:32.371Z,22.00
2017-12-27T17:58:59.128Z,22.40
2017-12-27T18:01:25.864Z,21.10
2017-12-27T18:03:51.882Z,22.57
2017-12-27T18:06:17.906Z,19.73
2017-12-27T18:08:43.897Z,22.43
2017-12-27T18:11:10.616Z,25.13
2017-12-27T18:13:36.557Z,20.20
2017-12-27T18:16:02.543Z,22.47
2017-12-27T18:18:28.532Z,21.10
2017-12-27T18:20:54.556Z,24.70
2017-12-27T18:23:20.641Z,21.43
2017-12-27T18:25:46.673Z,20.80
2017-12-27T18:28:13.415Z,20.90
2017-12-27T18:30:40.130Z,21.20
2017-12-27T18:33:06.122Z,19.93
2017-12-27T18:35:32.147Z,22.60
2017-12-27T18:37:58.903Z,21.10
2017-12-27T18:40:25.672Z,22.10
2017-12-27T18:42:51.713Z,24.00
2017-12-27T18:45:17.716Z,21.80
2017-12-27T18:47:43.703Z,21.17
2017-12-27T18:50:09.725Z,19.63
2017-12-27T18:52:35.724Z,23.70
2017-12-27T18:55:01.742Z,22.40
2017-12-27T18:57:27.747Z,18.60
2017-12-27T18:59:53.826Z,21.83
2017-12-27T19:02:19.818Z,19.27
2017-12-27T19:04:45.768Z,17.90
2017-12-27T19:07:11.808Z,23.57
2017-12-27T19:09:37.832Z,24.47
2017-12-27T19:12:03.833Z,22.00
2017-12-27T19:14:30.697Z,20.10
2017-12-27T19:16:56.708Z,20.30
2017-12-27T19:19:22.769Z,19.53
2017-12-27T19:21:49.527Z,18.30
2017-12-27T19:24:15.525Z,17.33
2017-12-27T19:26:41.563Z,21.03
2017-12-27T19:29:07.560Z,18.80
2017-12-27T19:31:33.589Z,20.73
2017-12-27T19:33:59.672Z,20.90
2017-12-27T19:36:25.676Z,20.80
2017-12-27T19:38:51.658Z,18.73
2017-12-27T19:41:17.707Z,20.20
2017-12-27T19:43:44.461Z,18.80
2017-12-27T19:46:11.258Z,21.83
2017-12-27T19:48:37.264Z,23.97
2017-12-27T19:51:03.291Z,17.37
2017-12-27T19:53:30.028Z,21.53
2017-12-27T19:55:56.076Z,18.13
2017-12-27T19:58:22.861Z,21.90
2017-12-27T20:00:48.885Z,20.37
2017-12-27T20:03:14.921Z,20.50
2017-12-27T20:05:41.700Z,19.23
2017-12-27T20:08:07.701Z,18.40
2017-12-27T20:10:34.452Z,19.03
2017-12-27T20:13:01.211Z,19.93
2017-12-27T20:15:27.969Z,20.53
2017-12-27T20:17:54.773Z,17.43
2017-12-27T20:20:20.773Z,20.90
2017-12-27T20:22:46.858Z,18.23
2017-12-27T20:25:12.840Z,21.07
2017-12-27T20:27:39.621Z,18.93
2017-12-27T20:30:05.653Z,18.67
2017-12-27T20:32:31.657Z,16.43
2017-12-27T20:34:58.444Z,21.90
2017-12-27T20:37:24.455Z,22.43
2017-12-27T20:39:50.455Z,18.10
2017-12-27T20:42:16.544Z,16.67
2017-12-27T20:44:42.526Z,19.90
2017-12-27T20:47:08.573Z,17.70
2017-12-27T20:49:34.577Z,18.07
2017-12-27T20:52:00.584Z,19.90
2017-12-27T20:54:26.649Z,21.57
2017-12-27T20:56:52.690Z,18.90
2017-12-27T20:59:18.731Z,17.70
2017-12-27T21:01:44.737Z,18.30
2017-12-27T21:04:10.732Z,17.80
2017-12-27T21:06:38.244Z,18.27
2017-12-27T21:09:04.264Z,19.10
2017-12-27T21:11:31.049Z,17.77
2017-12-27T21:13:57.069Z,23.67
2017-12-27T21:16:23.876Z,20.83
2017-12-27T21:18:49.877Z,18.93
2017-12-27T21:21:15.867Z,20.73
2017-12-27T21:23:41.897Z,16.93
2017-12-27T21:26:07.900Z,17.50
2017-12-27T21:28:33.944Z,17.23
2017-12-27T21:30:59.935Z,17.17
2017-12-27T21:33:26.668Z,17.27
2017-12-27T21:35:52.773Z,20.83
2017-12-27T21:38:19.535Z,16.33
2017-12-27T21:40:45.556Z,17.10
2017-12-27T21:43:11.556Z,16.20
2017-12-27T21:45:38.332Z,18.53
2017-12-27T21:48:10.550Z,17.63
2017-12-27T21:50:36.569Z,19.50
2017-12-27T21:53:02.592Z,15.70
2017-12-27T21:55:28.674Z,16.00
2017-12-27T21:57:54.834Z,20.10
2017-12-27T22:03:19.212Z,16.77
2017-12-27T22:05:45.302Z,21.23
2017-12-27T22:08:11.286Z,17.10
2017-12-27T22:10:37.299Z,19.10
2017-12-27T22:13:03.307Z,17.70
2017-12-27T22:15:29.376Z,16.97
2017-12-27T22:17:55.425Z,16.50
2017-12-27T22:20:27.792Z,18.13
2017-12-27T22:22:54.564Z,14.90
2017-12-27T22:25:20.600Z,17.03
2017-12-27T22:27:46.595Z,15.57
2017-12-27T22:30:12.620Z,15.77
2017-12-27T22:32:40.109Z,17.30
2017-12-27T22:35:06.891Z,18.97
2017-12-27T22:37:32.902Z,18.93
2017-12-27T22:39:59.672Z,19.77
2017-12-27T22:42:25.689Z,21.90
2017-12-27T22:45:03.308Z,17.00
2017-12-27T22:47:30.378Z,19.50
2017-12-27T22:49:57.136Z,18.17
2017-12-27T22:52:23.911Z,17.80
2017-12-27T22:54:49.953Z,16.90
2017-12-27T22:57:15.977Z,16.77
2017-12-27T22:59:42.029Z,21.13
2017-12-27T23:02:08.037Z,19.73
2017-12-27T23:04:34.815Z,16.90
2017-12-27T23:07:00.853Z,16.93
2017-12-27T23:09:26.871Z,19.20
2017-12-27T23:11:53.751Z,18.13
2017-12-27T23:14:19.772Z,18.33
2017-12-27T23:16:45.801Z,17.00
2017-12-27T23:19:12.595Z,18.57
2017-12-27T23:21:38.625Z,17.27
2017-12-27T23:24:04.646Z,21.13
2017-12-27T23:26:30.688Z,18.03
2017-12-27T23:28:56.723Z,16.90
2017-12-27T23:31:22.782Z,18.43
2017-12-27T23:33:48.793Z,19.13
2017-12-27T23:36:14.840Z,18.70
2017-12-27T23:38:40.848Z,18.07
2017-12-27T23:41:07.640Z,18.50
2017-12-27T23:43:33.646Z,19.17
2017-12-27T23:45:59.684Z,16.80
2017-12-27T23:48:26.448Z,17.53
2017-12-27T23:50:52.519Z,16.23
2017-12-27T23:53:18.577Z,16.90
2017-12-27T23:55:44.589Z,18.37
2017-12-27T23:58:10.623Z,15.50
